d.8/12 - Jorden passerer meteorsværmen Geminiderne. Op mod 120 stjerneskud i timen, topper 14-15 december.


Vejr3>N more information Vejr3>N


Vejr3>V more information Vejr3>V


rain radar more information rain snow radar


visit our other weather sites:

Template dokumentation
og downloads

And another site


nearby metar reports

   
EKRK - Roskilde
updated: 17-01-2019 00:50
Light Showers, rain, mist, overcast  
Light Showers, rain, mist, overcast  
   wind: wsw 9.3 m/s
wind: wsw 9.3 m/s
temperature: 5°C
wind chill: 0°C
dew point: 4°C
humidity: 93%
barometer: 989 hPa
clouds: Overcast
visibility: 5 km
cloud details: few clouds 182.9 m,
mostly cloudy 243.8 m,
mostly cloudy 365.8 m,
overcast 457.2 m
EKRK 162350Z AUTO 24018KT 4800NDV -SHRA BR FEW006/// BKN008/// BKN012/// OVC015/// 05/04 Q0989
EKCH - Copenhagen
updated: 17-01-2019 00:50
light drizzle, overcast  
light drizzle, overcast  
   wind: sw 10.8 m/s
wind: sw 10.8 m/s
temperature: 5°C
wind chill: -1°C
dew point: 4°C
humidity: 93%
barometer: 990 hPa
clouds: Overcast
visibility: 5 km
cloud details: overcast 243.8 m
EKCH 162350Z 23021KT 5000 -DZ OVC008 05/04 Q0990 TEMPO 4000 BKN015
EHBK - Maastricht
updated: 17-01-2019 00:55
Heavy Drizzle, overcast  
Heavy Drizzle, overcast  
   wind: sw 8.7 m/s
wind: sw 8.7 m/s
temperature: 4°C
wind chill: -1°C
dew point: 4°C
humidity: 100%
barometer: 1003 hPa
clouds: Overcast
visibility: 4 km
cloud details: few clouds 152.4 m,
mostly cloudy 182.9 m,
overcast 243.8 m
EHBK 162355Z AUTO 22017KT 3500 +DZ FEW005 BKN006 OVC008 04/04 Q1003
ELLX - Luxemburg
updated: 17-01-2019 00:50
light drizzle, mostly cloudy  
light drizzle, mostly cloudy  
   wind: sw 6.7 m/s
wind: sw 6.7 m/s
temperature: 3°C
wind chill: -2°C
dew point: 2°C
humidity: 93%
barometer: 1006 hPa
clouds: Mostly Cloudy
visibility: More than 10 km
cloud details: mostly cloudy 335.3 m
ELLX 162350Z 23013KT 9999 -DZ BKN011 03/02 Q1006 NOSIG
  

script developed by  Saratoga-weather.org adapted for the template by  Weerstation Leuven

you find our weather info also at:

European Weather Network

Weather Underground

AWEKAS

WeatherlinkIP

Citizen Weather Observer Program (CWOP)

equipment we use:

weather-station
Davis VP2+

weather-program
Weather Display

weather-server
Dell E6400

provider
Webhosting.dk

Davis VP2+

Weather Display

Dell E6400

Webhosting.dk